Time;durP1;ratioP1;P1;durP2;ratioP2;P2;SDS_P1;SDS_P2;PMS_P1;PMS_P2;Temp;Humidity;BMP_temperature;BMP_pressure;BME280_temperature;BME280_humidity;BME280_pressure;Samples;Min_cycle;Max_cycle;Signal;HPM_P1;HPM_P2
2021/10/28 00:13:56;;;;;;;61.80;36.80;;;;;;;3.47;100.00;99983.38;1771262;79;21382;-67
2021/10/28 00:16:28;;;;;;;66.02;37.23;;;;;;;3.48;100.00;99982.97;1771357;79;20864;-67
2021/10/28 00:19:01;;;;;;;60.63;35.00;;;;;;;3.48;100.00;99983.85;1770318;79;21101;-67
2021/10/28 00:21:35;;;;;;;60.65;36.17;;;;;;;3.51;100.00;99984.80;1771291;79;20851;-67
2021/10/28 00:24:06;;;;;;;70.97;37.03;;;;;;;3.56;100.00;99988.45;1771261;79;20903;-67
2021/10/28 00:26:35;;;;;;;58.30;36.50;;;;;;;3.57;100.00;99984.59;1771372;79;20944;-67
2021/10/28 00:29:06;;;;;;;62.73;37.10;;;;;;;3.56;100.00;99973.69;1747209;81;20952;-67
2021/10/28 00:31:37;;;;;;;65.05;36.45;;;;;;;3.56;100.00;99971.08;1758270;80;21415;-67
2021/10/28 00:34:07;;;;;;;66.20;35.85;;;;;;;3.59;100.00;99976.81;1758170;80;20900;-67
2021/10/28 00:36:36;;;;;;;63.45;35.30;;;;;;;3.59;100.00;99976.81;1764603;79;21399;-66
2021/10/28 00:39:07;;;;;;;62.17;36.58;;;;;;;3.57;100.00;99971.55;1770930;79;20919;-67
2021/10/28 00:41:38;;;;;;;63.92;35.55;;;;;;;3.58;100.00;99967.22;1727985;81;20978;-67
2021/10/28 00:44:07;;;;;;;60.12;35.75;;;;;;;3.57;100.00;99969.36;1755752;81;21132;-67
2021/10/28 00:46:37;;;;;;;70.10;37.25;;;;;;;3.53;100.00;99964.87;1758981;80;21392;-66
2021/10/28 00:49:08;;;;;;;67.50;37.48;;;;;;;3.49;100.00;99967.78;1759150;80;21006;-67
2021/10/28 00:51:36;;;;;;;59.65;34.67;;;;;;;3.41;100.00;99966.22;1760216;80;21461;-67
2021/10/28 00:54:05;;;;;;;62.50;35.95;;;;;;;3.38;100.00;99969.13;1759078;80;20908;-66
2021/10/28 00:56:33;;;;;;;68.28;36.28;;;;;;;3.33;100.00;99968.97;1760236;80;21382;-65
2021/10/28 00:59:01;;;;;;;64.75;35.68;;;;;;;3.32;100.00;99966.31;1759080;80;20938;-65
2021/10/28 01:01:29;;;;;;;65.17;37.17;;;;;;;3.30;100.00;99958.39;1759886;80;21481;-67
2021/10/28 01:03:57;;;;;;;66.47;37.10;;;;;;;3.29;100.00;99957.04;1759983;79;21485;-67
2021/10/28 01:06:26;;;;;;;67.82;38.40;;;;;;;3.27;100.00;99953.48;1765594;79;21014;-67
2021/10/28 01:08:57;;;;;;;64.60;37.48;;;;;;;3.22;100.00;99953.33;1744748;81;21910;-67
2021/10/28 01:11:26;;;;;;;60.65;36.25;;;;;;;3.19;100.00;99949.72;1744790;81;20837;-67
2021/10/28 01:13:59;;;;;;;65.62;37.58;;;;;;;3.15;100.00;99952.64;1744757;80;21444;-67
2021/10/28 01:16:27;;;;;;;;;;;;;;;3.12;100.00;99946.89;1748144;81;20952;-66
2021/10/28 01:18:56;;;;;;;62.62;33.60;;;;;;;3.11;100.00;99942.93;1751408;80;20441;-67
2021/10/28 01:21:25;;;;;;;60.43;34.78;;;;;;;3.09;100.00;99938.08;1760438;80;21088;-66
2021/10/28 01:23:52;;;;;;;62.13;35.92;;;;;;;3.09;100.00;99940.69;1759915;80;20900;-67
2021/10/28 01:26:20;;;;;;;60.50;36.17;;;;;;;3.06;100.00;99941.88;1749671;80;21039;-67
2021/10/28 01:29:00;;;;;;;69.60;36.38;;;;;;;3.03;100.00;99932.23;1728512;80;20923;-67
2021/10/28 01:31:30;;;;;;;66.92;36.42;;;;;;;2.99;100.00;99933.37;1753720;80;20888;-67
2021/10/28 01:33:58;;;;;;;64.17;37.58;;;;;;;2.91;100.00;99927.88;1760064;80;21153;-66
2021/10/28 01:36:26;;;;;;;64.22;36.90;;;;;;;2.84;100.00;99933.70;1759308;80;20888;-66
2021/10/28 01:38:55;;;;;;;71.85;37.17;;;;;;;2.79;100.00;99935.20;1762069;80;20941;-67
2021/10/28 01:41:23;;;;;;;62.13;35.13;;;;;;;2.75;100.00;99932.91;1764853;80;20964;-67
2021/10/28 01:43:53;;;;;;;61.48;35.10;;;;;;;2.73;100.00;99934.56;1765586;80;21039;-69
2021/10/28 01:46:23;;;;;;;64.75;36.50;;;;;;;2.70;100.00;99941.38;1754151;80;21118;-68
2021/10/28 01:48:50;;;;;;;59.85;35.20;;;;;;;2.69;100.00;99948.30;1770107;80;20836;-67
2021/10/28 01:51:23;;;;;;;65.08;36.10;;;;;;;2.69;100.00;99941.80;1764784;80;21461;-68
2021/10/28 01:53:50;;;;;;;;;;;;;;;2.71;100.00;99938.83;1764679;80;20976;-67
2021/10/28 01:56:18;;;;;;;59.40;32.93;;;;;;;2.73;100.00;99932.37;1759180;81;20420;-67
2021/10/28 01:58:51;;;;;;;63.48;34.63;;;;;;;2.74;100.00;99936.76;1753340;80;21181;-67
2021/10/28 02:01:17;;;;;;;60.73;33.53;;;;;;;2.77;100.00;99942.08;1752799;80;20833;-67
2021/10/28 02:03:45;;;;;;;61.37;33.83;;;;;;;2.76;100.00;99945.10;1756876;80;20932;-68
2021/10/28 02:06:13;;;;;;;57.43;34.18;;;;;;;2.78;100.00;99946.05;1765657;80;20938;-67
2021/10/28 02:08:40;;;;;;;58.87;32.13;;;;;;;2.80;100.00;99942.20;1764511;80;21407;-68
2021/10/28 02:11:08;;;;;;;54.90;34.43;;;;;;;2.81;100.00;99946.58;1770701;79;21509;-67
2021/10/28 02:13:35;;;;;;;66.57;33.88;;;;;;;2.84;100.00;99955.84;1771150;79;20856;-68
2021/10/28 02:16:03;;;;;;;70.22;33.42;;;;;;;2.86;100.00;99958.50;1765920;79;21431;-68
2021/10/28 02:18:33;;;;;;;64.70;33.50;;;;;;;2.88;100.00;99962.05;1753587;80;21488;-67
2021/10/28 02:21:04;;;;;;;65.15;32.90;;;;;;;2.87;100.00;99955.06;1752746;80;20833;-67
2021/10/28 02:23:34;;;;;;;54.98;33.50;;;;;;;2.87;100.00;99952.05;1733584;82;21372;-68
2021/10/28 02:26:02;;;;;;;52.98;33.08;;;;;;;2.87;100.00;99952.47;1752843;80;20892;-67
2021/10/28 02:28:30;;;;;;;60.40;32.15;;;;;;;2.88;100.00;99950.33;1753478;80;20964;-66
2021/10/28 02:30:58;;;;;;;64.58;34.43;;;;;;;2.87;100.00;99947.25;1753495;80;20988;-66
2021/10/28 02:33:28;;;;;;;74.90;37.73;;;;;;;2.86;100.00;99950.69;1761007;80;21549;-65
2021/10/28 02:35:56;;;;;;;60.43;35.63;;;;;;;2.85;100.00;99953.70;1767368;79;21114;-66
2021/10/28 02:38:25;;;;;;;62.53;34.65;;;;;;;2.82;100.00;99960.08;1763725;80;20911;-68
2021/10/28 02:40:53;;;;;;;54.50;33.00;;;;;;;2.79;100.00;99963.87;1759748;79;21404;-67
2021/10/28 02:43:21;;;;;;;57.35;33.25;;;;;;;2.77;100.00;99959.02;1752714;80;21000;-67
2021/10/28 02:45:50;;;;;;;58.63;32.75;;;;;;;2.75;100.00;99959.38;1747272;81;20988;-67
2021/10/28 02:48:18;;;;;;;58.48;33.38;;;;;;;2.72;100.00;99965.36;1760294;80;21346;-67
2021/10/28 02:50:46;;;;;;;54.03;33.35;;;;;;;2.70;100.00;99972.23;1760343;80;20891;-67
2021/10/28 02:53:14;;;;;;;61.58;32.93;;;;;;;2.67;100.00;99968.62;1759289;80;20924;-67
2021/10/28 02:55:44;;;;;;;56.83;34.23;;;;;;;2.63;100.00;99978.03;1748618;80;21421;-68
2021/10/28 02:58:12;;;;;;;54.08;32.30;;;;;;;2.61;100.00;99976.20;1760139;80;20876;-68
2021/10/28 03:00:43;;;;;;;59.95;31.25;;;;;;;2.61;100.00;99974.48;1760510;80;21951;-67
2021/10/28 03:03:10;;;;;;;56.95;32.45;;;;;;;2.62;100.00;99972.77;1746867;81;20896;-63
2021/10/28 03:05:39;;;;;;;111.40;35.65;;;;;;;2.64;100.00;99963.29;1745170;80;20984;-68
2021/10/28 03:08:07;;;;;;;92.95;31.77;;;;;;;2.64;100.00;99963.29;1744889;82;20957;-67
2021/10/28 03:10:36;;;;;;;70.20;33.20;;;;;;;2.63;100.00;99958.91;1745230;81;20853;-67
2021/10/28 03:13:06;;;;;;;64.77;32.80;;;;;;;2.64;100.00;99961.98;1757283;80;21129;-67
2021/10/28 03:15:35;;;;;;;63.25;33.80;;;;;;;2.60;100.00;99954.47;1759908;80;21485;-67
2021/10/28 03:19:04;;;;;;;60.00;32.88;;;;;;;2.58;100.00;99963.95;1758869;80;21497;-68
2021/10/28 03:26:10;;;;;;;61.18;32.95;;;;;;;2.29;100.00;99969.70;1760388;80;21137;-67
2021/10/28 03:28:42;;;;;;;57.40;32.48;;;;;;;2.20;100.00;99971.11;1759387;80;21383;-67
2021/10/28 03:31:09;;;;;;;56.77;31.42;;;;;;;2.14;100.00;99965.66;1760339;80;20891;-67
2021/10/28 03:33:39;;;;;;;57.98;32.58;;;;;;;2.10;100.00;99963.77;1759471;80;21411;-68
2021/10/28 03:36:12;;;;;;;57.58;32.45;;;;;;;2.09;100.00;99977.61;1741508;80;20868;-68
2021/10/28 03:38:52;;;;;;;49.65;30.23;;;;;;;2.09;100.00;99976.72;1760040;80;21449;-68
2021/10/28 03:57:45;;;;;;;48.60;29.25;;;;;;;2.20;100.00;99987.14;1759076;80;20943;-71
2021/10/28 04:08:08;;;;;;;49.63;28.47;;;;;;;2.28;100.00;99991.36;1743089;80;21364;-68
2021/10/28 04:19:16;;;;;;;55.88;30.82;;;;;;;2.33;100.00;100006.33;1745239;82;27167;-67
2021/10/28 04:28:54;;;;;;;47.25;30.00;;;;;;;2.28;100.00;99987.04;1744788;80;21419;-67
2021/10/28 04:29:46;;;;;;;50.75;31.17;;;;;;;2.28;100.00;99987.45;1743993;81;20900;-67
2021/10/28 04:32:29;;;;;;;51.98;31.05;;;;;;;2.25;100.00;99986.03;1744890;80;21420;-68
2021/10/28 04:34:56;;;;;;;57.10;31.57;;;;;;;2.22;100.00;99989.39;1744985;81;21444;-67
2021/10/28 04:37:35;;;;;;;58.25;31.73;;;;;;;2.20;100.00;99988.03;1739375;81;21375;-67
2021/10/28 04:39:58;;;;;;;52.25;31.23;;;;;;;2.19;100.00;99987.56;1734919;80;20888;-69
2021/10/28 04:42:29;;;;;;;59.13;32.50;;;;;;;2.16;100.00;99985.24;1715148;82;21459;-67
2021/10/28 04:45:04;;;;;;;51.70;31.33;;;;;;;2.13;100.00;99980.80;1717295;81;21102;-67
2021/10/28 04:47:36;;;;;;;52.17;30.88;;;;;;;2.09;100.00;99981.92;1727919;81;20950;-67
2021/10/28 04:50:06;;;;;;;50.33;30.48;;;;;;;2.06;100.00;99989.60;1726009;81;21395;-68
2021/10/28 04:52:45;;;;;;;52.85;29.98;;;;;;;2.02;100.00;99994.20;1727518;81;20892;-67
2021/10/28 04:55:13;;;;;;;51.70;29.80;;;;;;;2.00;100.00;99996.75;1728244;83;21558;-67
2021/10/28 04:57:42;;;;;;;52.58;29.60;;;;;;;2.00;100.00;99994.14;1727934;81;21466;-67
2021/10/28 05:00:15;;;;;;;55.48;30.45;;;;;;;2.03;100.00;99994.68;1728149;82;20876;-66
2021/10/28 05:02:44;;;;;;;50.63;30.50;;;;;;;2.05;100.00;99998.23;1726424;81;20982;-67
2021/10/28 05:05:12;;;;;;;47.85;30.65;;;;;;;2.07;100.00;99990.97;1728279;81;20996;-67
2021/10/28 05:07:43;;;;;;;54.35;30.60;;;;;;;2.12;100.00;99998.55;1727942;81;21600;-67
2021/10/28 05:10:20;;;;;;;;;;;;;;;2.15;100.00;99999.08;1730779;81;21101;-66
2021/10/28 05:12:47;;;;;;;57.25;28.85;;;;;;;2.18;100.00;100002.70;1711205;83;20094;-67
2021/10/28 05:15:15;;;;;;;44.67;27.05;;;;;;;2.19;100.00;100000.57;1732578;81;20991;-66
2021/10/28 05:17:43;;;;;;;44.95;27.48;;;;;;;2.23;100.00;100009.80;1741580;81;20950;-67
2021/10/28 05:20:11;;;;;;;43.10;27.75;;;;;;;2.26;100.00;100010.82;1727936;81;20872;-66
2021/10/28 05:22:39;;;;;;;48.25;28.52;;;;;;;2.33;100.00;100013.25;1728124;81;21414;-67
2021/10/28 05:25:09;;;;;;;55.70;26.93;;;;;;;2.41;100.00;100017.09;1727829;81;20860;-66
2021/10/28 05:27:39;;;;;;;47.20;27.37;;;;;;;2.49;100.00;100021.77;1727905;81;20899;-66
2021/10/28 05:30:08;;;;;;;41.68;27.45;;;;;;;2.62;100.00;100023.55;1739230;80;20911;-66
2021/10/28 05:32:38;;;;;;;53.85;29.48;;;;;;;2.71;100.00;100022.20;1734076;80;20915;-66
2021/10/28 05:35:09;;;;;;;48.02;29.20;;;;;;;2.80;100.00;100021.25;1727926;83;21117;-66
2021/10/28 05:37:36;;;;;;;39.60;28.52;;;;;;;2.90;100.00;100025.54;1728171;81;20892;-69
2021/10/28 05:40:05;;;;;;;39.80;26.77;;;;;;;2.94;100.00;100016.59;1727903;83;20931;-67
2021/10/28 05:42:35;;;;;;;44.15;28.23;;;;;;;3.03;100.00;100018.66;1728110;83;21423;-67
2021/10/28 05:45:06;;;;;;;44.60;26.57;;;;;;;3.08;100.00;100022.32;1726835;82;21475;-67
2021/10/28 05:47:34;;;;;;;43.55;27.70;;;;;;;3.12;100.00;100018.59;1715070;82;21763;-68
2021/10/28 05:50:02;;;;;;;57.43;29.27;;;;;;;3.19;100.00;100027.52;1714987;82;21435;-68
2021/10/28 05:52:30;;;;;;;45.38;27.70;;;;;;;3.24;100.00;100029.88;1715032;82;20944;-66
2021/10/28 05:55:01;;;;;;;45.88;27.80;;;;;;;3.20;100.00;100027.10;1715095;82;21475;-66
2021/10/28 05:57:28;;;;;;;52.38;28.70;;;;;;;3.21;100.00;100023.66;1715258;82;20924;-66
2021/10/28 05:59:56;;;;;;;49.60;28.40;;;;;;;3.27;100.00;100029.10;1722105;82;21114;-68
2021/10/28 06:02:25;;;;;;;43.08;27.25;;;;;;;3.34;100.00;100024.20;1725013;82;20932;-67
2021/10/28 06:04:53;;;;;;;43.60;27.82;;;;;;;3.42;100.00;100024.48;1715250;82;20905;-67
2021/10/28 06:07:20;;;;;;;41.00;26.02;;;;;;;3.48;100.00;100024.70;1715165;82;20960;-68
2021/10/28 06:09:49;;;;;;;38.85;26.75;;;;;;;3.59;100.00;100032.91;1715062;82;21406;-68
2021/10/28 06:12:17;;;;;;;43.08;27.05;;;;;;;3.70;100.00;100027.23;1715440;82;21173;-68
2021/10/28 06:14:45;;;;;;;42.73;26.82;;;;;;;3.82;100.00;100027.22;1715081;83;20877;-67
2021/10/28 06:17:15;;;;;;;41.77;26.23;;;;;;;3.92;100.00;100026.28;1715428;82;21424;-67
2021/10/28 06:19:41;;;;;;;38.48;27.20;;;;;;;4.03;100.00;100021.42;1715169;82;20932;-67
2021/10/28 06:22:09;;;;;;;38.75;27.15;;;;;;;4.11;100.00;100024.76;1715418;82;20912;-67
2021/10/28 06:24:37;;;;;;;44.60;26.35;;;;;;;4.22;100.00;100015.09;1715156;82;21120;-66
2021/10/28 06:27:05;;;;;;;45.50;29.87;;;;;;;4.30;100.00;100016.26;1715115;82;20904;-67
2021/10/28 06:29:32;;;;;;;42.95;28.57;;;;;;;4.36;100.00;100016.03;1715392;83;20916;-67
2021/10/28 06:32:01;;;;;;;40.35;27.80;;;;;;;4.41;100.00;100011.84;1715126;82;20904;-68
2021/10/28 06:34:37;;;;;;;49.30;28.80;;;;;;;4.52;100.00;100017.83;1725343;82;20901;-68
2021/10/28 06:37:04;;;;;;;40.88;26.48;;;;;;;4.67;100.00;100022.23;1720337;81;20884;-68
2021/10/28 06:39:30;;;;;;;50.78;28.27;;;;;;;4.86;100.00;100017.17;1715367;82;20845;-68
2021/10/28 06:41:57;;;;;;;56.50;32.10;;;;;;;5.04;100.00;100022.95;1715218;82;20928;-68
2021/10/28 06:44:25;;;;;;;51.13;30.32;;;;;;;5.23;100.00;100029.22;1722268;82;20908;-68
2021/10/28 06:46:52;;;;;;;44.30;28.83;;;;;;;5.43;100.00;100029.80;1729479;80;21012;-68
2021/10/28 06:49:20;;;;;;;50.75;30.72;;;;;;;5.61;100.00;100037.27;1715336;83;21765;-67
2021/10/28 06:51:47;;;;;;;58.02;32.08;;;;;;;5.80;100.00;100037.37;1715135;82;20865;-68
2021/10/28 06:54:24;;;;;;;44.35;29.27;;;;;;;6.00;100.00;100033.16;1715490;82;20893;-67
2021/10/28 07:02:30;;;;;;;59.10;33.23;;;;;;;6.53;100.00;100034.07;1715236;82;21075;-67
2021/10/28 07:04:52;;;;;;;;;;;;;;;6.68;100.00;100021.78;1717415;82;20884;-67
2021/10/28 07:07:20;;;;;;;46.33;27.32;;;;;;;6.83;100.00;100023.02;1715156;83;20095;-67
2021/10/28 07:09:57;;;;;;;44.48;25.77;;;;;;;6.98;100.00;100022.90;1719453;82;21415;-68
2021/10/28 07:12:30;;;;;;;47.95;28.62;;;;;;;7.13;100.00;100021.52;1728015;81;20885;-67
2021/10/28 07:14:58;;;;;;;81.45;41.60;;;;;;;7.29;100.00;100027.09;1715109;82;21196;-67
2021/10/28 07:17:32;;;;;;;61.90;32.15;;;;;;;7.44;100.00;100024.78;1720782;82;20900;-68
2021/10/28 07:20:08;;;;;;;105.83;50.77;;;;;;;7.60;100.00;100027.31;1725403;81;21688;-67
2021/10/28 07:22:34;;;;;;;56.30;28.87;;;;;;;7.75;100.00;100025.88;1725259;80;21586;-68
2021/10/28 07:30:30;;;;;;;45.30;25.77;;;;;;;8.28;100.00;100022.47;1715299;82;21471;-67
2021/10/28 08:00:22;;;;;;;40.25;26.25;;;;;;;10.23;100.00;99989.16;1715125;82;20935;-67
2021/10/28 08:16:32;;;;;;;45.10;29.70;;;;;;;11.26;100.00;99965.67;1714950;82;20916;-69
2021/10/28 08:21:36;;;;;;;43.98;27.10;;;;;;;11.59;100.00;99960.97;1718405;82;21084;-68
2021/10/28 08:29:28;;;;;;;29.18;20.85;;;;;;;12.13;100.00;99965.96;1745050;80;20857;-68
2021/10/28 08:31:54;;;;;;;27.40;21.10;;;;;;;12.32;100.00;99960.27;1744732;80;20928;-68
2021/10/28 08:34:27;;;;;;;27.45;19.48;;;;;;;12.49;100.00;99966.42;1745095;80;21095;-67
2021/10/28 08:36:54;;;;;;;29.92;19.98;;;;;;;12.65;100.00;99967.28;1744898;81;20927;-68
2021/10/28 08:39:23;;;;;;;30.43;20.32;;;;;;;12.82;100.00;99974.34;1736301;80;20949;-68
2021/10/28 08:41:50;;;;;;;32.60;20.55;;;;;;;12.99;100.00;99969.00;1724787;82;20912;-68
2021/10/28 08:44:22;;;;;;;33.25;20.45;;;;;;;13.16;100.00;99969.83;1715351;82;20940;-69
2021/10/28 08:46:53;;;;;;;31.95;20.45;;;;;;;13.35;100.00;99967.17;1723213;81;20857;-69
2021/10/28 08:49:29;;;;;;;31.75;20.15;;;;;;;13.51;100.00;99967.53;1726243;82;21423;-69
2021/10/28 08:52:01;;;;;;;27.70;18.27;;;;;;;13.70;100.00;99965.66;1721173;81;20860;-68
2021/10/28 08:57:24;;;;;;;23.50;15.98;;;;;;;14.05;100.00;99961.03;1715417;82;20900;-69
2021/10/28 09:25:12;;;;;;;20.62;11.55;;;;;;;15.71;100.00;99943.92;1707221;83;20927;-70
2021/10/28 09:27:47;;;;;;;21.07;11.90;;;;;;;15.86;100.00;99941.48;1670886;86;21456;-70
2021/10/28 09:30:21;;;;;;;18.67;11.48;;;;;;;16.02;100.00;99939.89;1691071;83;20888;-70
2021/10/28 09:32:49;;;;;;;18.87;12.03;;;;;;;16.14;100.00;99928.66;1744068;81;20932;-69
2021/10/28 09:44:59;;;;;;;45.92;22.50;;;;;;;16.78;93.51;99923.13;1683543;84;21084;-69
2021/10/28 09:47:36;;;;;;;79.67;36.58;;;;;;;16.94;90.98;99925.92;1775001;80;21056;-70
2021/10/28 09:50:10;;;;;;;65.72;35.75;;;;;;;17.05;88.05;99920.86;1789280;80;20864;-68
2021/10/28 09:52:36;;;;;;;47.13;20.60;;;;;;;17.13;85.03;99912.25;1789180;80;20891;-69
2021/10/28 09:58:05;;;;;;;47.03;23.65;;;;;;;17.39;79.05;99901.91;1789556;80;21497;-69
2021/10/28 10:00:38;;;;;;;29.67;16.32;;;;;;;17.39;79.05;99901.91;1789501;80;21098;-69
2021/10/28 10:03:10;;;;;;;30.37;16.48;;;;;;;17.50;77.14;99898.58;1789820;80;20888;-69
2021/10/28 10:05:37;;;;;;;20.25;11.48;;;;;;;17.61;75.55;99900.55;1789631;80;20919;-70
2021/10/28 10:08:07;;;;;;;46.63;24.65;;;;;;;17.73;74.09;99895.88;1789466;80;20955;-69
2021/10/28 10:10:37;;;;;;;44.53;18.52;;;;;;;17.83;71.63;99894.74;1789497;79;20923;-69
2021/10/28 10:13:07;;;;;;;;;;;;;;;17.92;70.74;99902.07;1792099;79;20892;-69
2021/10/28 10:15:37;;;;;;;22.37;13.72;;;;;;;18.04;69.67;99900.92;1789659;79;21078;-70
2021/10/28 10:18:07;;;;;;;21.57;13.05;;;;;;;18.13;68.49;99888.69;1789708;80;20867;-69
2021/10/28 10:20:47;;;;;;;17.10;10.95;;;;;;;18.21;67.63;99882.69;1789257;80;20947;-69
2021/10/28 10:26:20;;;;;;;21.35;12.80;;;;;;;18.37;64.34;99879.16;1789475;79;21360;-70
2021/10/28 11:28:31;;;;;;;10.20;6.17;;;;;;;19.27;51.52;99820.53;1744946;82;20940;-70
2021/10/28 13:52:41;;;;;;;15.20;8.85;;;;;;;19.00;43.46;99797.31;1754761;81;21103;-74
2021/10/28 13:55:08;;;;;;;23.57;14.63;;;;;;;18.80;43.92;99797.41;1760631;81;20985;-74
2021/10/28 14:25:36;;;;;;;40.10;14.33;;;;;;;16.91;49.43;99814.05;1727054;83;20991;-74
2021/10/28 14:30:30;;;;;;;20.95;12.23;;;;;;;16.61;50.92;99811.99;1727204;83;21391;-74
2021/10/28 15:35:18;;;;;;;165.92;72.40;;;;;;;14.34;75.95;99837.42;1783470;80;21600;-73
2021/10/28 15:40:50;;;;;;;59.63;26.60;;;;;;;14.19;78.65;99852.17;1755633;81;20947;-72
2021/10/28 15:56:48;;;;;;;250.40;104.78;;;;;;;13.78;85.52;99862.66;1760249;80;20879;-68
2021/10/28 16:24:01;;;;;;;83.50;40.75;;;;;;;13.19;100.00;99883.75;1733036;82;20859;-70
2021/10/28 16:26:33;;;;;;;126.25;57.10;;;;;;;13.11;100.00;99893.47;1747761;81;21038;-69
2021/10/28 16:29:01;;;;;;;99.50;45.12;;;;;;;13.04;100.00;99892.18;1748157;81;20965;-70
2021/10/28 16:31:28;;;;;;;58.28;29.52;;;;;;;12.97;100.00;99896.63;1748495;82;21441;-69
2021/10/28 16:33:58;;;;;;;39.60;21.35;;;;;;;12.90;100.00;99901.50;1748079;81;20993;-69
2021/10/28 16:36:26;;;;;;;36.30;18.27;;;;;;;12.82;100.00;99896.23;1751811;81;21008;-69
2021/10/28 16:38:54;;;;;;;25.68;17.25;;;;;;;12.76;100.00;99899.31;1759716;81;20982;-69
2021/10/28 16:41:22;;;;;;;39.92;17.23;;;;;;;12.69;100.00;99906.84;1747934;81;21047;-69
2021/10/28 16:43:50;;;;;;;32.78;16.82;;;;;;;12.60;100.00;99907.30;1751349;81;21164;-70
2021/10/28 16:46:19;;;;;;;30.20;15.83;;;;;;;12.54;100.00;99904.66;1758493;81;20931;-66
2021/10/28 16:48:49;;;;;;;28.35;16.05;;;;;;;12.49;100.00;99905.12;1749820;81;21097;-69
2021/10/28 16:51:16;;;;;;;52.75;17.55;;;;;;;12.44;100.00;99910.86;1757266;81;21414;-70
2021/10/28 16:53:45;;;;;;;34.98;25.45;;;;;;;12.39;100.00;99911.31;1749380;81;20922;-70
2021/10/28 16:56:16;;;;;;;64.80;37.38;;;;;;;12.36;100.00;99917.05;1744074;81;21151;-70
2021/10/28 16:58:44;;;;;;;66.92;31.20;;;;;;;12.32;100.00;99913.97;1754491;81;20915;-70
2021/10/28 17:01:12;;;;;;;69.65;27.17;;;;;;;12.29;100.00;99915.70;1732304;81;20989;-70
2021/10/28 17:03:40;;;;;;;204.25;38.25;;;;;;;12.26;100.00;99919.67;1761808;81;20926;-71
2021/10/28 17:06:12;;;;;;;69.17;29.92;;;;;;;12.22;100.00;99921.00;1754676;80;21108;-71
2021/10/28 17:08:40;;;;;;;55.85;26.90;;;;;;;12.18;100.00;99920.12;1757124;81;21959;-74
2021/10/28 17:11:10;;;;;;;53.80;26.33;;;;;;;12.16;100.00;99923.64;1740975;81;20985;-71
2021/10/28 17:13:39;;;;;;;54.95;28.47;;;;;;;12.12;100.00;99928.05;1762166;81;21701;-70
2021/10/28 17:16:07;;;;;;;68.92;28.70;;;;;;;12.10;100.00;99928.94;1761718;81;21478;-70
2021/10/28 17:18:36;;;;;;;47.20;24.55;;;;;;;12.08;100.00;99926.73;1755401;81;20940;-69
2021/10/28 17:21:06;;;;;;;37.17;21.90;;;;;;;12.06;100.00;99925.85;1723793;83;21176;-69
2021/10/28 17:23:38;;;;;;;39.05;20.37;;;;;;;12.02;100.00;99924.97;1727825;83;20871;-68
2021/10/28 17:26:04;;;;;;;31.33;17.62;;;;;;;11.98;100.00;99930.70;1757054;81;20849;-68
2021/10/28 17:28:35;;;;;;;25.40;16.62;;;;;;;11.96;100.00;99934.22;1728559;83;21425;-67
2021/10/28 17:31:04;;;;;;;28.83;16.80;;;;;;;11.90;100.00;99927.61;1757096;81;20936;-69
2021/10/28 17:33:32;;;;;;;22.02;15.80;;;;;;;11.86;100.00;99937.73;1728926;83;21944;-69
2021/10/28 17:35:59;;;;;;;27.00;18.12;;;;;;;11.81;100.00;99937.70;1756951;81;20984;-69
2021/10/28 17:38:28;;;;;;;25.12;16.97;;;;;;;11.75;100.00;99938.98;1709131;81;21509;-70
2021/10/28 17:40:56;;;;;;;27.67;17.37;;;;;;;11.71;100.00;99941.17;1730439;82;20980;-69
2021/10/28 17:43:29;;;;;;;31.40;17.73;;;;;;;11.65;100.00;99939.84;1757232;81;20893;-69
2021/10/28 17:45:57;;;;;;;31.12;18.07;;;;;;;11.60;100.00;99938.95;1757010;81;21831;-69
2021/10/28 17:48:26;;;;;;;46.73;20.85;;;;;;;11.57;100.00;99945.55;1728515;83;20915;-69
2021/10/28 17:50:55;;;;;;;69.58;21.17;;;;;;;11.52;100.00;99946.86;1756939;81;20944;-68
2021/10/28 17:53:23;;;;;;;36.88;18.15;;;;;;;11.48;100.00;99942.88;1712688;83;21013;-69
2021/10/28 17:55:51;;;;;;;49.50;19.37;;;;;;;11.45;100.00;99943.76;1732023;81;20904;-70
2021/10/28 17:58:19;;;;;;;31.95;18.35;;;;;;;11.41;100.00;99944.62;1732219;81;21170;-71
2021/10/28 18:00:47;;;;;;;32.55;16.17;;;;;;;11.34;100.00;99934.45;1716398;83;21408;-70
2021/10/28 18:03:19;;;;;;;24.52;15.05;;;;;;;11.31;100.00;99936.20;1734520;81;21022;-69
2021/10/28 18:05:44;;;;;;;34.13;16.25;;;;;;;11.26;100.00;99940.14;1726709;82;21056;-67
2021/10/28 18:08:13;;;;;;;32.78;15.80;;;;;;;11.21;100.00;99938.36;1733218;81;21259;-69
2021/10/28 18:10:41;;;;;;;24.43;16.07;;;;;;;11.17;100.00;99934.83;1746279;80;21144;-68
2021/10/28 18:13:12;;;;;;;29.85;18.70;;;;;;;11.12;100.00;99940.53;1783267;80;20966;-68
2021/10/28 18:15:40;;;;;;;51.50;27.22;;;;;;;11.07;100.00;99941.38;1783342;80;20927;-68
2021/10/28 18:18:08;;;;;;;51.90;27.80;;;;;;;11.01;100.00;99937.84;1786617;80;20959;-69
2021/10/28 18:20:36;;;;;;;51.05;29.48;;;;;;;10.99;100.00;99945.31;1788309;79;21458;-69
2021/10/28 18:23:04;;;;;;;50.83;28.98;;;;;;;10.97;100.00;99943.10;1786683;80;21163;-68
2021/10/28 18:25:32;;;;;;;43.25;24.85;;;;;;;10.96;100.00;99946.62;1780445;80;20884;-68
2021/10/28 18:28:01;;;;;;;35.95;22.02;;;;;;;10.94;100.00;99945.29;1790357;80;21509;-69
2021/10/28 18:30:31;;;;;;;30.00;18.85;;;;;;;10.92;100.00;99947.48;1790626;80;21005;-68
2021/10/28 18:33:00;;;;;;;27.20;16.80;;;;;;;10.89;100.00;99948.34;1778587;79;20973;-68
2021/10/28 18:35:28;;;;;;;27.87;15.93;;;;;;;10.88;100.00;99946.98;1772732;80;21170;-68
2021/10/28 18:37:56;;;;;;;21.55;15.45;;;;;;;10.86;100.00;99957.97;1745825;80;20974;-69
2021/10/28 18:40:24;;;;;;;28.60;17.52;;;;;;;10.84;100.00;99953.13;1751094;80;20907;-69
2021/10/28 18:42:52;;;;;;;33.75;17.15;;;;;;;10.82;100.00;99959.70;1790804;79;20859;-63
2021/10/28 18:45:20;;;;;;;35.73;22.15;;;;;;;10.79;100.00;99962.33;1790757;80;20868;-62
2021/10/28 18:47:51;;;;;;;44.25;26.70;;;;;;;10.75;100.00;99963.19;1790869;79;20918;-63
2021/10/28 18:50:20;;;;;;;41.02;26.57;;;;;;;10.72;100.00;99973.28;1790646;79;20982;-70
2021/10/28 18:52:49;;;;;;;45.73;27.07;;;;;;;10.72;100.00;99973.73;1789353;79;21076;-70
2021/10/28 18:55:17;;;;;;;37.58;24.23;;;;;;;10.71;100.00;99973.28;1775692;80;20982;-71
2021/10/28 18:57:45;;;;;;;36.68;22.13;;;;;;;10.71;100.00;99972.84;1791008;80;20879;-70
2021/10/28 19:00:13;;;;;;;31.85;19.75;;;;;;;10.71;100.00;99964.92;1770967;80;21157;-70
2021/10/28 19:02:41;;;;;;;32.05;19.48;;;;;;;10.71;100.00;99968.88;1784213;80;20922;-66
2021/10/28 19:05:10;;;;;;;40.65;30.32;;;;;;;10.73;100.00;99964.94;1776478;80;20937;-66
2021/10/28 19:07:39;;;;;;;34.78;25.52;;;;;;;10.74;100.00;99971.98;1780795;80;20954;-72
2021/10/28 19:10:08;;;;;;;35.17;26.48;;;;;;;10.76;100.00;99977.27;1769388;80;20957;-71
2021/10/28 19:12:36;;;;;;;30.95;25.50;;;;;;;10.75;100.00;99975.06;1770625;80;21189;-71
2021/10/28 19:15:09;;;;;;;30.17;23.05;;;;;;;10.76;100.00;99976.83;1790713;79;20893;-71
2021/10/28 19:17:42;;;;;;;22.27;17.45;;;;;;;10.80;100.00;99983.89;1789551;79;20950;-71
2021/10/28 19:20:15;;;;;;;27.07;17.50;;;;;;;10.81;100.00;99988.73;1781127;79;20883;-71
2021/10/28 19:22:44;;;;;;;23.35;16.05;;;;;;;10.81;100.00;99984.34;1791020;80;20930;-70
2021/10/28 19:25:12;;;;;;;25.88;16.50;;;;;;;10.81;100.00;99976.86;1732765;81;21994;-69
2021/10/28 19:27:41;;;;;;;25.77;16.95;;;;;;;10.81;100.00;99987.41;1763810;80;21532;-70
2021/10/28 19:32:50;;;;;;;26.00;17.67;;;;;;;10.78;100.00;99987.39;1767761;80;21483;-70
2021/10/28 19:35:21;;;;;;;32.75;19.45;;;;;;;10.76;100.00;99995.73;1748894;81;20950;-70
2021/10/28 19:38:00;;;;;;;32.13;19.20;;;;;;;10.72;100.00;99995.72;1754533;81;21082;-69
2021/10/28 19:48:35;;;;;;;25.85;17.95;;;;;;;10.48;100.00;100007.85;1757326;81;21408;-71
2021/10/28 19:51:04;;;;;;;24.80;16.82;;;;;;;10.38;100.00;100016.09;1771292;81;21128;-69